Time;durP1;ratioP1;P1;durP2;ratioP2;P2;SDS_P1;SDS_P2;PMS_P1;PMS_P2;Temp;Humidity;BMP_temperature;BMP_pressure;BME280_temperature;BME280_humidity;BME280_pressure;Samples;Min_cycle;Max_cycle;Signal;HPM_P1;HPM_P2
2023/07/17 00:00:15;;;;;;;8.00;2.60;;;;;;;26.76;39.71;100752.43;108062;1288;21984;-62
2023/07/17 00:02:42;;;;;;;6.40;2.90;;;;;;;26.74;39.74;100750.41;108099;1277;22846;-67
2023/07/17 00:05:09;;;;;;;5.40;3.10;;;;;;;26.75;39.74;100754.68;108121;1288;22009;-62
2023/07/17 00:07:37;;;;;;;9.80;2.90;;;;;;;26.73;39.86;100753.15;108136;1287;21991;-67
2023/07/17 00:10:06;;;;;;;8.90;3.20;;;;;;;26.71;39.74;100751.32;108118;1287;23834;-67
2023/07/17 00:12:34;;;;;;;7.30;3.30;;;;;;;26.69;39.92;100748.80;108044;1288;21983;-62
2023/07/17 00:15:00;;;;;;;7.30;3.40;;;;;;;26.68;40.08;100750.90;108085;1287;22000;-62
2023/07/17 00:17:26;;;;;;;6.00;3.10;;;;;;;26.68;40.17;100748.90;108065;1283;21992;-62
2023/07/17 00:19:54;;;;;;;5.90;3.00;;;;;;;26.72;39.89;100744.83;108095;1288;21989;-67
2023/07/17 00:22:19;;;;;;;6.90;3.60;;;;;;;26.64;40.29;100744.66;108100;1283;21982;-62
2023/07/17 00:24:45;;;;;;;5.40;2.90;;;;;;;26.67;40.20;100743.05;107833;1287;21990;-68
2023/07/17 00:27:11;;;;;;;5.20;3.10;;;;;;;26.68;40.20;100741.33;108090;1288;21989;-68
2023/07/17 00:29:36;;;;;;;4.60;2.70;;;;;;;26.70;39.98;100739.57;108062;1288;23058;-62
2023/07/17 00:32:02;;;;;;;6.40;3.10;;;;;;;26.72;39.94;100735.98;108071;1288;23603;-68
2023/07/17 00:34:30;;;;;;;6.10;3.30;;;;;;;26.73;39.98;100737.36;108062;1283;22001;-62
2023/07/17 00:36:56;;;;;;;6.80;3.10;;;;;;;26.72;40.12;100743.02;108080;1288;23640;-67
2023/07/17 00:39:23;;;;;;;6.20;3.70;;;;;;;26.70;39.91;100742.96;108153;1289;22030;-62
2023/07/17 00:41:50;;;;;;;5.90;3.80;;;;;;;26.69;40.12;100740.91;108046;1288;23274;-62
2023/07/17 00:44:16;;;;;;;6.80;3.50;;;;;;;26.61;40.33;100740.94;108078;1288;22001;-62
2023/07/17 00:46:41;;;;;;;5.20;3.50;;;;;;;26.54;40.74;100740.34;108090;1287;21997;-67
2023/07/17 00:49:07;;;;;;;8.60;3.50;;;;;;;26.49;40.92;100742.54;107874;1287;21994;-67
2023/07/17 00:51:33;;;;;;;7.40;3.30;;;;;;;26.42;40.96;100743.73;107809;1288;21984;-62
2023/07/17 00:53:59;;;;;;;4.50;2.90;;;;;;;26.39;40.86;100743.08;107842;1289;21991;-62
2023/07/17 00:56:25;;;;;;;5.50;3.90;;;;;;;26.40;40.91;100740.65;108086;1283;22191;-68
2023/07/17 00:58:50;;;;;;;7.10;3.50;;;;;;;26.40;41.08;100735.96;107811;1287;22793;-68
2023/07/17 01:01:16;;;;;;;6.40;3.50;;;;;;;26.38;41.14;100737.03;107815;1289;22026;-67
2023/07/17 01:03:42;;;;;;;6.00;3.70;;;;;;;26.37;41.13;100737.66;107765;1289;21989;-62
2023/07/17 01:06:08;;;;;;;5.20;3.20;;;;;;;26.36;41.50;100736.83;107896;1287;21994;-62
2023/07/17 01:08:33;;;;;;;9.60;3.70;;;;;;;26.35;41.48;100738.02;108089;1288;21987;-67
2023/07/17 01:11:00;;;;;;;10.40;4.30;;;;;;;26.33;41.81;100739.38;107869;1289;21997;-62
2023/07/17 01:13:26;;;;;;;6.60;3.20;;;;;;;26.31;42.05;100739.75;107865;1288;23688;-68
2023/07/17 01:15:51;;;;;;;5.30;3.00;;;;;;;26.27;42.12;100740.03;108068;1289;21990;-67
2023/07/17 01:18:17;;;;;;;12.20;3.60;;;;;;;26.24;42.25;100737.48;108057;1289;21992;-67
2023/07/17 01:20:43;;;;;;;7.00;4.00;;;;;;;26.24;42.35;100737.20;108077;1283;22456;-68
2023/07/17 01:23:08;;;;;;;5.90;3.20;;;;;;;26.25;42.73;100739.08;108052;1287;22018;-62
2023/07/17 01:25:34;;;;;;;6.20;3.50;;;;;;;26.24;42.78;100737.71;107827;1289;23732;-62
2023/07/17 01:28:00;;;;;;;8.30;3.30;;;;;;;26.25;42.84;100740.19;108074;1284;22000;-62
2023/07/17 01:30:26;;;;;;;4.80;3.30;;;;;;;26.26;43.07;100740.98;108065;1287;23636;-62
2023/07/17 01:32:52;;;;;;;7.90;4.10;;;;;;;26.29;43.14;100740.05;108053;1289;21992;-68
2023/07/17 01:35:17;;;;;;;9.10;3.40;;;;;;;26.38;43.14;100741.74;108068;1281;21992;-63
2023/07/17 01:37:43;;;;;;;4.20;3.20;;;;;;;26.41;43.14;100740.76;108091;1284;21997;-68
2023/07/17 01:40:12;;;;;;;10.10;3.30;;;;;;;26.42;43.31;100742.84;108051;1284;21993;-67
2023/07/17 01:42:38;;;;;;;4.80;3.40;;;;;;;26.41;43.67;100742.80;108083;1284;21991;-62
2023/07/17 01:45:04;;;;;;;8.40;3.90;;;;;;;26.41;43.75;100744.41;108044;1288;22004;-67
2023/07/17 01:47:30;;;;;;;6.70;3.20;;;;;;;26.45;43.53;100745.35;108107;1281;21993;-62
2023/07/17 01:49:56;;;;;;;7.20;3.40;;;;;;;26.49;43.66;100742.89;108113;1288;23612;-62
2023/07/17 01:52:22;;;;;;;7.40;4.20;;;;;;;26.52;43.56;100742.45;108086;1283;21991;-67
2023/07/17 01:54:48;;;;;;;6.80;3.30;;;;;;;26.57;43.55;100741.97;108085;1284;21988;-62
2023/07/17 01:57:13;;;;;;;5.40;3.50;;;;;;;26.61;43.54;100744.91;108079;1288;22043;-67
2023/07/17 01:59:39;;;;;;;7.30;3.40;;;;;;;26.65;43.49;100744.77;108073;1288;22024;-67
2023/07/17 02:02:05;;;;;;;4.40;3.30;;;;;;;26.68;43.82;100742.02;108123;1283;21995;-67
2023/07/17 02:04:31;;;;;;;4.90;3.20;;;;;;;26.71;43.73;100747.91;108093;1284;21988;-62
2023/07/17 02:06:57;;;;;;;7.30;3.30;;;;;;;26.72;43.99;100743.71;108082;1287;21993;-67
2023/07/17 02:09:23;;;;;;;7.20;3.20;;;;;;;26.70;43.91;100742.08;108077;1287;22030;-66
2023/07/17 02:11:48;;;;;;;7.40;3.20;;;;;;;26.70;43.91;100740.48;108074;1288;21995;-67
2023/07/17 02:14:17;;;;;;;5.90;3.10;;;;;;;26.70;43.79;100740.29;108149;1288;22028;-60
2023/07/17 02:16:43;;;;;;;6.10;3.30;;;;;;;26.74;43.78;100738.17;108096;1284;21985;-60
2023/07/17 02:19:09;;;;;;;8.30;3.70;;;;;;;26.79;43.76;100739.27;108069;1287;21999;-66
2023/07/17 02:21:36;;;;;;;7.60;3.60;;;;;;;26.79;43.88;100737.60;108070;1288;21987;-61
2023/07/17 02:24:01;;;;;;;5.90;3.30;;;;;;;26.80;43.87;100737.17;107836;1284;22032;-60
2023/07/17 02:26:27;;;;;;;9.60;3.80;;;;;;;26.81;43.88;100738.20;108027;1286;24325;-66
2023/07/17 02:28:53;;;;;;;5.30;3.20;;;;;;;26.82;43.91;100739.95;108142;1288;21992;-60
2023/07/17 02:31:18;;;;;;;6.80;3.20;;;;;;;26.84;43.99;100737.48;108082;1287;21993;-66
2023/07/17 02:33:44;;;;;;;6.50;3.40;;;;;;;26.85;43.84;100739.55;108069;1288;21992;-66
2023/07/17 02:36:10;;;;;;;6.70;3.50;;;;;;;26.89;43.93;100738.70;108041;1281;22460;-61
2023/07/17 02:38:36;;;;;;;7.30;3.50;;;;;;;26.92;43.91;100738.67;107788;1288;23608;-60
2023/07/17 02:41:01;;;;;;;8.00;3.10;;;;;;;26.94;43.83;100742.70;108070;1287;22250;-60
2023/07/17 02:43:27;;;;;;;8.20;3.60;;;;;;;26.95;43.81;100739.89;107987;1283;21990;-60
2023/07/17 02:45:53;;;;;;;7.00;3.50;;;;;;;26.96;43.86;100744.66;107974;1281;23609;-60
2023/07/17 02:48:19;;;;;;;11.80;3.20;;;;;;;26.97;43.90;100743.34;107978;1287;23612;-66
2023/07/17 02:50:44;;;;;;;10.90;3.60;;;;;;;26.97;44.02;100741.52;108023;1287;21996;-66
2023/07/17 02:53:12;;;;;;;11.40;3.70;;;;;;;26.97;44.10;100746.54;107973;1288;22080;-67
2023/07/17 02:55:37;;;;;;;13.20;4.10;;;;;;;26.98;44.21;100743.78;107989;1288;21989;-60
2023/07/17 02:58:04;;;;;;;6.80;3.30;;;;;;;26.98;44.11;100747.71;108079;1287;21990;-60
2023/07/17 03:00:30;;;;;;;11.50;4.00;;;;;;;27.00;43.92;100750.83;108070;1283;21982;-61
2023/07/17 03:02:56;;;;;;;8.90;3.80;;;;;;;27.03;43.98;100753.89;107990;1288;21988;-61
2023/07/17 03:05:22;;;;;;;13.50;3.30;;;;;;;27.01;43.95;100759.20;108014;1287;21995;-61
2023/07/17 03:07:47;;;;;;;8.20;3.40;;;;;;;27.06;44.07;100759.48;107919;1286;21992;-67
2023/07/17 03:10:13;;;;;;;7.60;3.60;;;;;;;27.08;44.06;100761.27;107941;1284;22163;-60
2023/07/17 03:12:39;;;;;;;13.30;4.10;;;;;;;27.09;44.07;100760.95;107981;1289;23624;-65
2023/07/17 03:15:06;;;;;;;8.10;3.50;;;;;;;27.11;44.09;100760.45;107955;1285;22455;-64
2023/07/17 03:17:32;;;;;;;11.30;4.40;;;;;;;27.14;44.07;100760.92;107980;1289;24339;-61
2023/07/17 03:19:58;;;;;;;24.20;4.60;;;;;;;27.19;44.19;100760.04;107962;1284;21992;-67
2023/07/17 03:22:26;;;;;;;17.50;3.60;;;;;;;27.24;44.32;100761.49;108002;1284;21996;-61
2023/07/17 03:24:53;;;;;;;13.30;3.90;;;;;;;27.30;44.34;100766.08;108022;1283;21992;-62
2023/07/17 03:27:19;;;;;;;10.80;4.00;;;;;;;27.36;44.57;100760.57;107966;1289;22161;-67
2023/07/17 03:29:46;;;;;;;12.00;3.60;;;;;;;27.40;44.59;100760.56;107956;1289;21999;-61
2023/07/17 03:32:12;;;;;;;10.40;3.30;;;;;;;27.42;44.69;100762.02;107990;1289;21979;-61
2023/07/17 03:34:38;;;;;;;8.80;3.70;;;;;;;27.45;44.57;100763.27;107959;1289;21990;-61
2023/07/17 03:37:04;;;;;;;11.10;3.80;;;;;;;27.49;44.75;100761.39;107995;1283;21981;-61
2023/07/17 03:39:32;;;;;;;10.10;3.50;;;;;;;27.51;44.87;100764.11;107955;1284;22043;-66
2023/07/17 03:41:58;;;;;;;15.70;3.70;;;;;;;27.54;44.40;100763.71;108003;1283;21997;-67
2023/07/17 03:44:23;;;;;;;9.80;3.10;;;;;;;27.64;44.49;100765.59;107989;1289;22734;-66
2023/07/17 03:46:49;;;;;;;9.40;3.20;;;;;;;27.74;44.48;100770.62;108090;1288;22021;-61
2023/07/17 03:49:15;;;;;;;6.90;3.60;;;;;;;27.81;44.87;100770.23;108041;1280;21973;-60
2023/07/17 03:51:41;;;;;;;6.10;3.20;;;;;;;27.86;44.72;100768.98;108051;1287;21983;-61
2023/07/17 03:54:07;;;;;;;9.20;3.70;;;;;;;27.88;44.81;100769.11;108065;1283;21986;-67
2023/07/17 03:56:35;;;;;;;6.00;3.00;;;;;;;27.90;44.90;100772.23;108081;1289;21987;-62
2023/07/17 03:59:01;;;;;;;11.60;3.50;;;;;;;27.95;44.81;100772.21;107993;1288;191578;-61
2023/07/17 04:01:27;;;;;;;8.70;3.40;;;;;;;27.99;44.94;100773.48;108024;1280;21993;-67
2023/07/17 04:03:52;;;;;;;12.00;4.00;;;;;;;28.03;45.23;100772.12;108081;1289;21987;-60
2023/07/17 04:06:18;;;;;;;5.80;3.70;;;;;;;28.02;45.30;100774.73;108062;1285;21991;-61
2023/07/17 04:08:43;;;;;;;6.90;3.40;;;;;;;28.07;45.70;100775.20;108039;1284;21986;-60
2023/07/17 04:11:09;;;;;;;9.10;3.90;;;;;;;28.12;45.92;100775.58;108074;1284;21959;-66
2023/07/17 04:13:35;;;;;;;9.40;3.60;;;;;;;28.17;45.96;100773.25;108036;1289;21987;-61
2023/07/17 04:16:00;;;;;;;6.50;3.60;;;;;;;28.25;45.91;100778.16;108124;1288;21990;-60
2023/07/17 04:18:26;;;;;;;7.10;3.70;;;;;;;28.34;46.35;100777.39;108078;1288;21992;-67
2023/07/17 04:20:52;;;;;;;10.00;3.60;;;;;;;28.44;46.20;100771.94;108023;1280;21986;-68
2023/07/17 04:23:18;;;;;;;30.80;6.00;;;;;;;28.54;46.10;100771.86;108066;1288;21987;-60
2023/07/17 04:25:43;;;;;;;21.20;4.80;;;;;;;28.65;46.13;100770.95;108008;1287;21987;-67
2023/07/17 04:28:09;;;;;;;26.10;5.20;;;;;;;28.76;46.13;100770.25;108022;1289;21989;-61
2023/07/17 04:30:36;;;;;;;39.20;6.70;;;;;;;28.86;45.81;100771.23;108083;1287;22195;-61
2023/07/17 04:33:03;;;;;;;43.40;7.70;;;;;;;28.93;45.71;100772.83;108042;1281;21987;-61
2023/07/17 04:35:28;;;;;;;39.30;7.00;;;;;;;29.01;45.67;100770.02;108059;1288;21996;-68
2023/07/17 04:37:55;;;;;;;31.60;5.90;;;;;;;29.10;45.23;100776.13;108049;1284;22000;-62
2023/07/17 04:40:21;;;;;;;33.30;6.60;;;;;;;29.18;45.11;100776.89;108089;1289;22173;-61
2023/07/17 04:42:47;;;;;;;28.70;5.60;;;;;;;29.25;45.11;100771.42;108025;1288;21989;-62
2023/07/17 04:45:12;;;;;;;36.50;6.00;;;;;;;29.32;45.23;100770.29;108051;1289;21988;-67
2023/07/17 04:47:38;;;;;;;30.00;6.10;;;;;;;29.39;45.26;100770.76;108062;1287;21989;-67
2023/07/17 04:50:05;;;;;;;18.40;4.60;;;;;;;29.46;45.23;100773.04;108077;1289;21992;-61
2023/07/17 04:52:31;;;;;;;16.00;4.50;;;;;;;29.57;45.14;100769.60;108000;1277;21985;-61
2023/07/17 04:54:57;;;;;;;10.50;3.50;;;;;;;29.72;44.83;100772.48;108042;1289;21988;-61
2023/07/17 04:57:23;;;;;;;8.10;3.60;;;;;;;29.87;44.29;100769.36;108093;1287;21976;-67
2023/07/17 04:59:48;;;;;;;6.00;3.00;;;;;;;30.03;43.84;100771.45;108045;1284;22926;-61
2023/07/17 05:02:14;;;;;;;10.20;3.40;;;;;;;30.18;43.83;100770.29;108082;1289;21991;-66
2023/07/17 05:04:40;;;;;;;9.00;3.90;;;;;;;30.37;43.96;100770.42;108054;1284;22001;-60
2023/07/17 05:07:05;;;;;;;6.40;3.30;;;;;;;30.58;43.65;100773.80;108032;1281;21987;-67
2023/07/17 05:09:32;;;;;;;11.40;3.70;;;;;;;30.78;42.86;100776.16;108013;1289;21970;-60
2023/07/17 05:11:58;;;;;;;9.00;3.70;;;;;;;31.01;42.32;100774.04;108072;1283;22030;-60
2023/07/17 05:14:27;;;;;;;8.90;3.20;;;;;;;31.26;41.81;100769.95;108097;1284;21994;-67
2023/07/17 05:16:52;;;;;;;11.10;3.00;;;;;;;31.52;41.05;100768.56;108042;1288;21991;-59
2023/07/17 05:19:18;;;;;;;9.00;3.70;;;;;;;31.79;40.26;100769.31;108086;1288;22254;-67
2023/07/17 05:21:43;;;;;;;14.10;5.20;;;;;;;31.97;39.57;100769.71;108064;1278;22024;-67
2023/07/17 05:24:09;;;;;;;11.00;4.00;;;;;;;32.07;38.93;100772.79;108110;1285;21986;-66
2023/07/17 05:26:36;;;;;;;7.70;3.80;;;;;;;32.15;38.44;100775.04;108063;1284;22744;-67
2023/07/17 05:29:02;;;;;;;9.10;4.20;;;;;;;32.25;38.44;100776.46;108064;1284;21997;-66
2023/07/17 05:31:28;;;;;;;14.20;5.90;;;;;;;32.40;38.17;100774.34;108064;1284;21989;-67
2023/07/17 05:33:55;;;;;;;8.10;4.20;;;;;;;32.58;37.63;100776.00;108110;1284;21994;-61
2023/07/17 05:36:22;;;;;;;6.50;3.10;;;;;;;32.79;37.45;100775.55;108053;1283;21995;-67
2023/07/17 05:38:48;;;;;;;9.90;3.40;;;;;;;33.02;36.93;100773.77;108009;1284;21958;-67
2023/07/17 05:41:13;;;;;;;8.10;4.30;;;;;;;33.20;36.59;100774.84;107707;1284;22160;-68
2023/07/17 05:43:39;;;;;;;7.90;3.70;;;;;;;33.39;36.53;100774.43;109806;1288;21986;-68
2023/07/17 05:46:04;;;;;;;6.70;3.00;;;;;;;33.60;36.01;100773.70;107737;1284;22002;-68
2023/07/17 05:48:30;;;;;;;8.40;3.10;;;;;;;33.79;35.49;100771.39;107911;1287;22004;-61
2023/07/17 05:50:56;;;;;;;27.30;4.70;;;;;;;33.96;35.08;100769.80;108096;1284;23685;-62
2023/07/17 05:53:22;;;;;;;5.10;3.30;;;;;;;34.15;35.01;100769.92;108106;1288;21989;-68
2023/07/17 05:55:48;;;;;;;9.40;2.80;;;;;;;34.33;34.23;100770.02;108073;1280;21986;-62
2023/07/17 05:58:13;;;;;;;10.00;3.40;;;;;;;34.47;33.33;100769.63;108091;1288;22002;-61
2023/07/17 06:00:40;;;;;;;7.60;3.30;;;;;;;34.69;33.86;100769.70;108062;1281;22158;-61
2023/07/17 06:03:05;;;;;;;6.30;3.10;;;;;;;34.89;33.34;100768.97;108017;1287;22032;-67
2023/07/17 06:05:38;;;;;;;8.50;3.00;;;;;;;35.03;32.29;100766.98;108063;1288;22042;-60
2023/07/17 06:08:05;;;;;;;29.90;5.20;;;;;;;35.13;32.08;100766.74;108067;1287;21994;-61
2023/07/17 06:10:30;;;;;;;5.80;2.80;;;;;;;35.25;31.80;100764.61;108096;1284;21986;-67
2023/07/17 06:12:56;;;;;;;11.60;2.80;;;;;;;35.35;31.14;100767.89;108083;1284;21989;-62
2023/07/17 06:15:22;;;;;;;9.30;2.70;;;;;;;35.41;30.63;100769.08;108068;1288;22002;-67
2023/07/17 06:17:48;;;;;;;7.50;2.70;;;;;;;35.52;30.05;100763.65;108075;1287;21991;-62
2023/07/17 06:20:15;;;;;;;7.50;2.60;;;;;;;35.72;29.99;100761.48;107863;1288;21964;-66
2023/07/17 06:22:41;;;;;;;4.10;2.70;;;;;;;35.94;30.38;100764.09;108109;1286;22110;-67
2023/07/17 06:25:07;;;;;;;6.10;2.40;;;;;;;36.10;29.63;100763.23;108059;1288;22083;-62
2023/07/17 06:27:32;;;;;;;4.80;2.60;;;;;;;36.24;29.01;100761.04;108016;1288;21995;-63
2023/07/17 06:29:58;;;;;;;6.20;2.60;;;;;;;36.37;28.83;100762.79;108081;1288;21998;-67
2023/07/17 06:32:24;;;;;;;8.90;2.60;;;;;;;36.56;29.10;100763.73;108063;1288;23384;-62
2023/07/17 06:34:50;;;;;;;7.60;3.30;;;;;;;36.71;28.93;100762.73;108086;1288;23044;-66
2023/07/17 06:37:16;;;;;;;10.00;2.50;;;;;;;36.82;28.62;100762.73;108035;1284;22029;-62
2023/07/17 06:39:41;;;;;;;7.40;2.60;;;;;;;36.91;28.40;100763.58;108089;1280;22047;-67
2023/07/17 06:42:08;;;;;;;8.10;2.90;;;;;;;36.92;27.38;100762.74;108037;1284;22624;-67
2023/07/17 06:44:35;;;;;;;7.50;2.50;;;;;;;37.02;27.16;100761.16;108122;1284;21988;-66
2023/07/17 06:47:00;;;;;;;6.80;2.80;;;;;;;37.15;26.70;100759.58;108064;1288;22045;-63
2023/07/17 06:49:26;;;;;;;5.00;2.90;;;;;;;37.30;27.19;100759.02;108116;1288;21985;-62
2023/07/17 06:51:52;;;;;;;5.80;2.60;;;;;;;37.42;26.44;100754.86;108075;1288;22437;-62
2023/07/17 06:54:17;;;;;;;4.40;2.30;;;;;;;37.53;26.91;100752.85;108085;1282;21987;-65
2023/07/17 06:56:43;;;;;;;3.70;2.50;;;;;;;37.62;25.97;100750.62;108113;1288;21994;-67
2023/07/17 06:59:09;;;;;;;6.50;2.80;;;;;;;37.69;26.33;100749.25;108100;1288;22024;-61
2023/07/17 07:01:35;;;;;;;6.50;2.80;;;;;;;37.70;25.98;100754.25;108079;1289;21991;-67
2023/07/17 07:04:01;;;;;;;5.60;2.30;;;;;;;37.68;26.29;100756.84;108069;1288;21994;-62
2023/07/17 07:06:27;;;;;;;6.40;2.60;;;;;;;37.60;25.26;100757.69;107927;1289;23644;-64
2023/07/17 07:08:52;;;;;;;3.70;2.40;;;;;;;37.52;25.68;100756.44;108082;1288;21991;-62
2023/07/17 07:11:18;;;;;;;5.00;2.70;;;;;;;37.44;25.47;100753.92;108022;1288;21994;-62
2023/07/17 07:13:44;;;;;;;4.70;2.40;;;;;;;37.48;25.38;100755.42;108088;1287;21999;-62
2023/07/17 07:16:10;;;;;;;6.70;2.40;;;;;;;37.62;25.07;100754.27;107983;1284;21993;-63
2023/07/17 07:18:36;;;;;;;4.30;2.40;;;;;;;37.83;24.68;100753.20;108004;1288;21985;-61
2023/07/17 07:21:02;;;;;;;5.40;2.30;;;;;;;38.03;25.11;100753.63;108068;1289;21990;-62
2023/07/17 07:23:27;;;;;;;21.10;4.70;;;;;;;38.21;25.11;100752.78;108104;1288;22047;-66
2023/07/17 07:25:53;;;;;;;6.40;2.40;;;;;;;38.20;24.39;100753.72;108066;1288;21992;-62
2023/07/17 07:28:19;;;;;;;4.10;2.50;;;;;;;38.16;24.45;100751.73;108075;1289;21989;-63
2023/07/17 07:30:44;;;;;;;4.20;2.50;;;;;;;38.15;23.87;100754.48;108141;1288;22172;-63
2023/07/17 07:33:10;;;;;;;7.00;2.50;;;;;;;38.18;24.53;100756.77;108065;1283;21998;-67
2023/07/17 07:35:36;;;;;;;3.60;2.40;;;;;;;38.14;24.53;100755.96;108074;1288;21989;-62
2023/07/17 07:38:02;;;;;;;5.10;2.90;;;;;;;38.12;24.63;100756.27;108067;1289;21991;-62
2023/07/17 07:40:28;;;;;;;4.40;2.50;;;;;;;38.10;24.31;100753.59;108076;1284;22024;-62
2023/07/17 07:42:53;;;;;;;8.90;3.00;;;;;;;38.14;24.27;100750.88;107960;1288;21984;-63
2023/07/17 07:45:21;;;;;;;7.60;3.10;;;;;;;38.14;24.00;100749.03;109971;1288;21755;-61
2023/07/17 07:47:46;;;;;;;6.50;2.40;;;;;;;38.16;24.51;100746.98;109992;1288;21898;-61
2023/07/17 07:50:12;;;;;;;36.00;4.80;;;;;;;38.17;24.57;100747.17;109995;1286;22235;-67
2023/07/17 07:52:38;;;;;;;7.40;3.20;;;;;;;38.15;24.48;100747.52;109313;1288;23148;-61
2023/07/17 07:55:05;;;;;;;58.50;7.30;;;;;;;38.17;24.25;100742.98;107992;1289;22025;-60
2023/07/17 07:57:31;;;;;;;4.40;2.50;;;;;;;38.31;24.35;100745.46;108058;1284;23729;-61
2023/07/17 07:59:57;;;;;;;4.10;2.70;;;;;;;38.43;24.62;100741.46;108293;1283;24310;-67
2023/07/17 08:02:23;;;;;;;7.00;2.70;;;;;;;38.56;23.99;100740.86;108067;1289;22205;-67
2023/07/17 08:04:50;;;;;;;6.90;2.80;;;;;;;38.79;23.80;100740.20;108103;1288;21989;-68
2023/07/17 08:07:16;;;;;;;5.20;2.40;;;;;;;39.05;23.47;100740.88;108038;1289;22008;-67
2023/07/17 08:09:42;;;;;;;5.50;2.50;;;;;;;39.33;23.65;100740.69;108007;1289;22042;-68
2023/07/17 08:12:08;;;;;;;5.30;2.60;;;;;;;39.46;23.55;100737.40;107999;1284;21988;-63
2023/07/17 08:14:34;;;;;;;7.80;2.70;;;;;;;39.37;23.96;100737.89;108011;1286;21989;-62
2023/07/17 08:16:59;;;;;;;7.20;2.90;;;;;;;39.28;23.59;100736.54;108043;1288;21992;-64
2023/07/17 08:19:25;;;;;;;5.20;2.30;;;;;;;39.31;23.88;100739.95;108019;1288;22001;-61
2023/07/17 08:21:51;;;;;;;4.70;2.70;;;;;;;39.51;23.73;100739.63;107994;1281;21991;-62
2023/07/17 08:24:16;;;;;;;7.70;3.10;;;;;;;39.68;23.14;100736.22;108025;1288;21989;-62
2023/07/17 08:26:43;;;;;;;4.80;2.50;;;;;;;39.85;23.23;100736.30;108084;1285;22049;-62
2023/07/17 08:29:09;;;;;;;4.10;2.60;;;;;;;39.95;22.88;100739.34;108085;1288;22004;-66
2023/07/17 08:31:36;;;;;;;5.80;3.00;;;;;;;40.11;23.14;100736.90;108104;1288;22029;-62
2023/07/17 08:34:01;;;;;;;6.30;2.80;;;;;;;40.31;23.21;100732.46;108043;1288;22029;-61
2023/07/17 08:36:28;;;;;;;7.90;2.80;;;;;;;40.54;23.09;100727.81;107971;1288;22039;-62
2023/07/17 08:38:54;;;;;;;7.90;2.90;;;;;;;40.80;23.04;100727.77;108024;1289;22095;-62
2023/07/17 08:41:20;;;;;;;14.20;8.60;;;;;;;41.05;22.77;100730.38;107992;1288;22045;-63
2023/07/17 08:43:46;;;;;;;30.70;12.70;;;;;;;41.25;22.85;100724.39;108023;1281;21984;-62
2023/07/17 08:46:12;;;;;;;15.30;6.90;;;;;;;41.50;22.66;100726.35;107781;1289;22001;-67
2023/07/17 08:48:43;;;;;;;8.30;3.20;;;;;;;41.78;22.44;100725.35;108031;1289;22009;-68
2023/07/17 08:51:12;;;;;;;5.70;2.90;;;;;;;41.95;22.30;100723.73;108095;1286;21997;-67
2023/07/17 08:53:40;;;;;;;4.80;2.60;;;;;;;42.01;22.33;100723.89;108093;1287;21987;-67
2023/07/17 08:56:07;;;;;;;5.20;3.10;;;;;;;42.18;22.33;100719.92;107903;1289;23035;-68
2023/07/17 08:58:32;;;;;;;5.60;3.40;;;;;;;42.51;21.76;100722.60;108174;1288;21982;-63
2023/07/17 09:00:58;;;;;;;5.20;3.20;;;;;;;42.86;22.16;100723.13;108064;1288;23070;-68
2023/07/17 09:03:24;;;;;;;4.50;2.80;;;;;;;43.26;22.26;100723.81;107825;1283;21989;-63
2023/07/17 09:05:50;;;;;;;7.00;3.10;;;;;;;43.39;21.01;100724.20;108052;1288;23718;-62
2023/07/17 09:08:16;;;;;;;5.90;3.40;;;;;;;43.25;21.32;100723.23;108079;1288;21992;-63
2023/07/17 09:10:42;;;;;;;7.00;3.10;;;;;;;43.05;21.56;100722.64;108114;1288;22451;-62
2023/07/17 09:13:08;;;;;;;7.00;3.00;;;;;;;42.86;21.59;100727.52;108093;1285;22162;-66
2023/07/17 09:15:35;;;;;;;7.70;2.80;;;;;;;42.59;20.86;100729.54;108123;1288;21991;-62
2023/07/17 09:18:02;;;;;;;11.60;3.40;;;;;;;42.35;21.44;100725.28;108088;1287;21989;-63
2023/07/17 09:20:28;;;;;;;7.40;3.40;;;;;;;42.12;21.26;100726.17;108080;1288;23725;-68
2023/07/17 09:22:56;;;;;;;6.60;3.20;;;;;;;42.04;21.42;100723.96;108069;1287;22003;-63
2023/07/17 09:25:21;;;;;;;5.60;3.00;;;;;;;41.99;21.38;100721.13;108075;1287;21993;-63
2023/07/17 09:27:50;;;;;;;4.90;3.10;;;;;;;42.00;20.98;100721.25;107834;1288;23611;-64
2023/07/17 09:30:20;;;;;;;7.70;3.20;;;;;;;42.08;21.21;100718.23;107849;1289;22460;-63
2023/07/17 09:32:46;;;;;;;3.50;2.70;;;;;;;42.22;21.55;100717.35;108145;1288;21993;-67
2023/07/17 09:35:12;;;;;;;5.50;3.20;;;;;;;42.45;21.84;100714.60;108097;1288;21984;-68
2023/07/17 09:37:42;;;;;;;5.80;2.90;;;;;;;42.78;22.00;100712.88;108078;1287;21987;-65
2023/07/17 09:40:11;;;;;;;;;;;;;;;43.00;21.63;100707.81;108026;1288;21983;-63
2023/07/17 09:43:04;;;;;;;6.30;3.30;;;;;;;43.35;21.79;100707.42;108010;1288;21989;-63
2023/07/17 09:45:30;;;;;;;6.10;2.90;;;;;;;43.89;21.66;100706.05;107981;1288;21993;-68
2023/07/17 09:47:55;;;;;;;8.10;3.30;;;;;;;44.36;21.35;100705.70;107740;1288;21988;-68
2023/07/17 09:50:23;;;;;;;5.80;2.90;;;;;;;44.68;21.31;100701.98;107792;1289;21996;-67
2023/07/17 09:52:50;;;;;;;5.00;2.60;;;;;;;45.12;21.40;100699.58;107809;1288;22159;-63
2023/07/17 09:55:19;;;;;;;3.50;2.90;;;;;;;45.69;21.07;100695.24;108034;1289;23025;-62
2023/07/17 09:57:44;;;;;;;7.40;3.40;;;;;;;45.93;20.01;100696.00;107786;1286;23001;-63
2023/07/17 10:00:13;;;;;;;7.60;2.90;;;;;;;45.68;19.70;100698.60;107781;1286;24356;-67
2023/07/17 10:02:41;;;;;;;5.30;2.90;;;;;;;45.30;19.47;100696.42;108097;1287;23651;-63
2023/07/17 10:05:08;;;;;;;4.50;2.70;;;;;;;45.19;19.70;100689.92;108047;1284;21985;-67
2023/07/17 10:07:36;;;;;;;6.40;3.10;;;;;;;45.08;19.12;100688.93;108013;1287;22000;-63
2023/07/17 10:10:06;;;;;;;6.40;2.90;;;;;;;44.94;19.32;100692.34;108070;1288;22756;-63
2023/07/17 10:12:32;;;;;;;5.40;3.10;;;;;;;44.81;19.24;100687.56;108029;1288;21996;-62
2023/07/17 10:14:58;;;;;;;5.10;3.00;;;;;;;44.81;19.36;100689.67;107803;1288;21998;-67
2023/07/17 10:17:30;;;;;;;7.10;3.40;;;;;;;44.91;19.21;100688.26;108032;1288;22169;-63
2023/07/17 10:20:00;;;;;;;6.90;3.00;;;;;;;44.84;19.43;100687.02;108096;1283;22884;-67
2023/07/17 10:22:52;;;;;;;4.40;3.00;;;;;;;45.00;19.76;100680.30;108138;1286;21988;-67
2023/07/17 10:25:18;;;;;;;5.20;3.10;;;;;;;45.51;19.16;100677.51;108071;1288;22248;-64
2023/07/17 10:27:52;;;;;;;6.60;4.00;;;;;;;45.70;19.08;100669.59;108077;1288;21993;-64
2023/07/17 10:30:32;;;;;;;7.80;3.20;;;;;;;45.67;18.72;100667.27;108072;1288;23063;-68
2023/07/17 10:33:07;;;;;;;;;;;;;;;45.67;19.19;100667.59;108128;1288;21977;-63
2023/07/17 10:35:47;;;;;;;6.00;2.80;;;;;;;45.55;18.55;100670.81;108072;1288;22749;-63
2023/07/17 10:38:34;;;;;;;4.70;3.00;;;;;;;45.26;18.30;100669.25;108082;1288;21999;-64
2023/07/17 10:41:12;;;;;;;4.20;3.10;;;;;;;45.00;18.06;100671.60;107981;1288;21996;-63
2023/07/17 10:44:01;;;;;;;8.30;3.10;;;;;;;44.92;18.62;100664.07;108057;1289;21989;-62
2023/07/17 10:46:30;;;;;;;3.60;2.50;;;;;;;45.38;18.78;100658.27;107806;1288;24080;-69
2023/07/17 10:49:10;;;;;;;4.50;3.50;;;;;;;45.57;17.40;100654.86;107963;1288;21986;-68
2023/07/17 10:51:36;;;;;;;4.70;2.90;;;;;;;45.37;18.00;100656.39;108039;1288;21993;-67
2023/07/17 10:54:02;;;;;;;3.70;2.90;;;;;;;45.23;18.25;100654.73;108064;1288;21998;-67
2023/07/17 10:56:29;;;;;;;6.10;3.00;;;;;;;45.21;18.29;100649.52;108000;1288;23643;-65
2023/07/17 10:58:54;;;;;;;5.20;2.70;;;;;;;45.40;18.53;100645.99;108037;1288;21994;-68
2023/07/17 11:01:21;;;;;;;7.90;3.30;;;;;;;45.53;17.99;100650.55;107998;1288;21977;-64
2023/07/17 11:03:47;;;;;;;8.40;3.10;;;;;;;45.54;18.41;100649.55;107818;1289;23104;-62
2023/07/17 11:06:17;;;;;;;5.70;3.10;;;;;;;45.69;18.08;100646.50;108102;1288;21978;-68
2023/07/17 11:08:52;;;;;;;3.70;3.10;;;;;;;45.57;18.10;100645.30;108081;1286;21987;-64
2023/07/17 11:11:18;;;;;;;4.60;2.80;;;;;;;45.31;17.86;100646.97;108083;1288;21986;-68
2023/07/17 11:13:45;;;;;;;5.00;3.20;;;;;;;44.95;17.98;100650.48;108072;1285;21999;-67